createdAt,value
2022-12-05T00:00:17.388Z,27.30
2022-12-05T00:02:47.115Z,25.93
2022-12-05T00:05:16.877Z,26.95
2022-12-05T00:07:46.739Z,27.47
2022-12-05T00:10:17.298Z,27.10
2022-12-05T00:12:47.043Z,25.93
2022-12-05T00:15:16.781Z,25.92
2022-12-05T00:17:46.491Z,26.33
2022-12-05T00:20:15.991Z,26.73
2022-12-05T00:22:45.808Z,26.57
2022-12-05T00:25:15.569Z,27.53
2022-12-05T00:27:45.606Z,27.10
2022-12-05T00:30:15.170Z,27.40
2022-12-05T00:32:45.097Z,27.27
2022-12-05T00:35:14.549Z,27.47
2022-12-05T00:37:44.297Z,28.60
2022-12-05T00:40:15.157Z,28.98
2022-12-05T00:42:50.847Z,27.53
2022-12-05T00:45:16.177Z,27.40
2022-12-05T00:47:45.938Z,27.37
2022-12-05T00:50:15.680Z,28.40
2022-12-05T00:52:45.314Z,29.15
2022-12-05T00:55:15.059Z,29.05
2022-12-05T00:57:44.839Z,28.93
2022-12-05T01:00:14.828Z,29.40
2022-12-05T01:02:44.629Z,28.23
2022-12-05T01:05:14.092Z,30.20
2022-12-05T01:07:43.919Z,28.70
2022-12-05T01:10:15.692Z,30.48
2022-12-05T01:12:45.754Z,30.90
2022-12-05T01:15:15.503Z,29.45
2022-12-05T01:17:45.280Z,28.27
2022-12-05T01:20:15.024Z,30.37
2022-12-05T01:22:44.750Z,29.87
2022-12-05T01:25:14.498Z,30.97
2022-12-05T01:27:44.548Z,31.52
2022-12-05T01:30:15.049Z,30.16
2022-12-05T01:32:44.804Z,31.70
2022-12-05T01:35:14.644Z,30.97
2022-12-05T01:37:44.800Z,32.88
2022-12-05T01:40:14.448Z,32.35
2022-12-05T01:42:44.329Z,31.67
2022-12-05T01:45:19.589Z,30.72
2022-12-05T01:47:49.453Z,33.87
2022-12-05T01:50:19.048Z,31.27
2022-12-05T01:52:48.850Z,31.80
2022-12-05T01:55:20.233Z,31.82
2022-12-05T01:57:50.613Z,32.03
2022-12-05T02:00:21.373Z,31.77
2022-12-05T02:02:54.239Z,32.53
2022-12-05T02:05:29.986Z,31.80
2022-12-05T02:08:02.648Z,33.35
2022-12-05T02:10:37.976Z,32.20
2022-12-05T02:13:19.319Z,32.87
2022-12-05T02:15:57.915Z,32.57
2022-12-05T02:18:33.299Z,33.00
2022-12-05T02:21:29.679Z,33.00
2022-12-05T02:24:05.717Z,33.28
2022-12-05T02:26:53.046Z,33.15
2022-12-05T02:29:46.243Z,31.37
2022-12-05T02:32:24.650Z,32.57
2022-12-05T02:35:05.946Z,32.80
2022-12-05T02:40:28.910Z,33.15
2022-12-05T02:43:01.849Z,33.20
2022-12-05T02:45:35.173Z,32.63
2022-12-05T02:48:07.381Z,32.73
2022-12-05T02:50:40.020Z,31.60
2022-12-05T02:53:12.983Z,31.77
2022-12-05T02:55:45.057Z,31.73
2022-12-05T02:58:17.837Z,32.90
2022-12-05T03:00:50.659Z,32.50
2022-12-05T03:03:23.156Z,31.73
2022-12-05T03:05:58.434Z,32.40
2022-12-05T03:08:31.222Z,30.27
2022-12-05T03:11:03.159Z,32.03
2022-12-05T03:13:38.865Z,31.47
2022-12-05T03:16:12.943Z,33.05
2022-12-05T03:18:48.477Z,32.70
2022-12-05T03:21:22.315Z,31.20
2022-12-05T03:23:55.430Z,31.62
2022-12-05T03:26:37.686Z,31.85
2022-12-05T03:29:30.094Z,32.10
2022-12-05T03:32:05.690Z,30.93
2022-12-05T03:34:50.524Z,31.37
2022-12-05T03:37:23.577Z,29.57
2022-12-05T03:39:57.066Z,31.12
2022-12-05T03:42:32.251Z,28.65
2022-12-05T03:45:13.257Z,31.30
2022-12-05T03:47:51.808Z,30.67
2022-12-05T03:50:27.143Z,31.60
2022-12-05T03:55:36.760Z,28.97
2022-12-05T03:58:13.805Z,29.00
2022-12-05T04:03:18.741Z,27.82
2022-12-05T04:05:57.280Z,28.05
2022-12-05T04:08:32.450Z,30.08
2022-12-05T04:11:07.695Z,29.50
2022-12-05T04:13:57.475Z,27.40
2022-12-05T04:16:47.331Z,27.87
2022-12-05T04:19:25.908Z,28.47
2022-12-05T04:21:57.836Z,27.30
2022-12-05T04:24:50.851Z,26.52
2022-12-05T04:27:32.435Z,27.60
2022-12-05T04:30:11.253Z,28.97
2022-12-05T04:32:52.809Z,26.12
2022-12-05T04:35:25.591Z,26.65
2022-12-05T04:37:58.679Z,27.98
2022-12-05T04:40:34.536Z,28.02
2022-12-05T04:43:05.630Z,27.13
2022-12-05T04:45:38.709Z,27.70
2022-12-05T04:48:12.876Z,28.65
2022-12-05T04:50:45.507Z,28.25
2022-12-05T04:53:17.405Z,28.63
2022-12-05T04:55:50.023Z,27.83
2022-12-05T04:58:25.235Z,26.95
2022-12-05T05:01:15.031Z,26.73
2022-12-05T05:03:48.298Z,27.50
2022-12-05T05:06:18.488Z,28.30
2022-12-05T05:08:56.954Z,27.37
2022-12-05T05:11:31.978Z,27.13
2022-12-05T05:14:02.548Z,26.23
2022-12-05T05:16:34.799Z,25.95
2022-12-05T05:19:05.433Z,26.77
2022-12-05T05:21:37.695Z,27.10
2022-12-05T05:24:11.499Z,27.12
2022-12-05T05:26:43.574Z,28.97
2022-12-05T05:29:14.841Z,28.85
2022-12-05T05:31:44.763Z,26.73
2022-12-05T05:34:16.117Z,26.93
2022-12-05T05:36:45.869Z,26.73
2022-12-05T05:39:16.672Z,26.90
2022-12-05T05:41:46.508Z,26.67
2022-12-05T05:44:16.256Z,28.33
2022-12-05T05:46:46.075Z,27.73
2022-12-05T05:49:15.851Z,27.53
2022-12-05T05:51:45.890Z,28.47
2022-12-05T05:54:15.698Z,27.47
2022-12-05T05:56:45.501Z,27.83
2022-12-05T05:59:15.561Z,27.22
2022-12-05T06:01:45.008Z,28.47
2022-12-05T06:04:14.828Z,28.63
2022-12-05T06:06:44.316Z,29.50
2022-12-05T06:09:14.087Z,26.87
2022-12-05T06:11:43.868Z,27.67
2022-12-05T06:14:13.622Z,28.15
2022-12-05T06:16:43.757Z,27.90
2022-12-05T06:19:13.539Z,27.90
2022-12-05T06:21:43.278Z,27.50
2022-12-05T06:24:13.078Z,26.75
2022-12-05T06:26:43.561Z,28.43
2022-12-05T06:29:13.317Z,27.80
2022-12-05T06:31:43.493Z,28.73
2022-12-05T06:34:13.142Z,27.93
2022-12-05T06:36:42.984Z,28.50
2022-12-05T06:39:12.716Z,27.90
2022-12-05T06:41:42.557Z,29.20
2022-12-05T06:44:13.086Z,28.75
2022-12-05T06:46:42.822Z,29.00
2022-12-05T06:49:12.733Z,26.67
2022-12-05T06:51:42.490Z,28.03
2022-12-05T06:54:14.617Z,28.60
2022-12-05T06:56:44.654Z,28.35
2022-12-05T06:59:14.407Z,28.10
2022-12-05T07:01:46.333Z,26.17
2022-12-05T07:04:23.283Z,28.50
2022-12-05T07:06:55.735Z,28.03
2022-12-05T07:09:44.810Z,28.50
2022-12-05T07:12:16.709Z,27.70
2022-12-05T07:14:49.284Z,27.53
2022-12-05T07:17:22.924Z,26.83
2022-12-05T07:19:53.902Z,27.62
2022-12-05T07:22:24.307Z,26.27
2022-12-05T07:24:54.305Z,27.20
2022-12-05T07:27:27.690Z,25.33
2022-12-05T07:29:55.384Z,25.92
2022-12-05T07:32:25.229Z,27.10
2022-12-05T07:34:55.791Z,25.50
2022-12-05T07:37:25.712Z,26.60
2022-12-05T07:39:55.535Z,24.75
2022-12-05T07:42:25.451Z,26.95
2022-12-05T07:44:55.208Z,25.97
2022-12-05T07:47:25.077Z,27.00
2022-12-05T07:49:55.052Z,27.00
2022-12-05T07:52:24.647Z,26.93
2022-12-05T07:54:54.413Z,26.63
2022-12-05T07:57:24.176Z,26.80
2022-12-05T07:59:54.044Z,27.60
2022-12-05T08:02:24.116Z,26.00
2022-12-05T08:04:53.908Z,26.40
2022-12-05T08:07:23.752Z,27.30
2022-12-05T08:09:53.520Z,27.33
2022-12-05T08:12:23.034Z,26.90
2022-12-05T08:14:52.764Z,25.60
2022-12-05T08:17:22.538Z,26.93
2022-12-05T08:19:52.267Z,25.87
2022-12-05T08:22:22.031Z,25.60
2022-12-05T08:24:56.265Z,25.67
2022-12-05T08:27:23.554Z,25.43
2022-12-05T08:29:56.067Z,25.77
2022-12-05T08:32:27.249Z,23.60
2022-12-05T08:34:57.089Z,24.33
2022-12-05T08:37:26.924Z,24.63
2022-12-05T08:39:57.026Z,25.13
2022-12-05T08:42:26.783Z,22.90
2022-12-05T08:44:56.901Z,24.67
2022-12-05T08:47:27.228Z,23.00
2022-12-05T08:49:57.238Z,25.37
2022-12-05T08:52:27.063Z,24.40
2022-12-05T08:54:57.191Z,22.10
2022-12-05T08:57:27.324Z,22.20
2022-12-05T08:59:57.089Z,23.23
2022-12-05T09:02:26.619Z,21.27
2022-12-05T09:05:05.189Z,21.03
2022-12-05T09:07:28.551Z,21.37
2022-12-05T09:09:58.352Z,21.90
2022-12-05T09:12:27.928Z,22.10
2022-12-05T09:14:58.849Z,21.85
2022-12-05T09:17:28.671Z,21.47
2022-12-05T09:19:58.780Z,22.17
2022-12-05T09:22:28.553Z,21.60
2022-12-05T09:24:58.584Z,22.63
2022-12-05T09:27:29.920Z,19.85
2022-12-05T09:29:59.919Z,20.53
2022-12-05T09:32:29.821Z,21.97
2022-12-05T09:34:59.989Z,22.33
2022-12-05T09:37:39.342Z,21.47
2022-12-05T09:40:01.811Z,20.55
2022-12-05T09:42:56.764Z,20.63
2022-12-05T09:45:38.449Z,20.80
2022-12-05T09:48:15.475Z,20.95
2022-12-05T09:50:51.217Z,21.37
2022-12-05T09:53:31.981Z,20.05
2022-12-05T09:56:13.659Z,19.80
2022-12-05T09:58:54.892Z,18.87
2022-12-05T10:01:40.709Z,18.57
2022-12-05T10:04:35.708Z,19.00
2022-12-05T10:07:24.789Z,18.33
2022-12-05T10:10:10.311Z,17.48
2022-12-05T10:12:59.606Z,17.30
2022-12-05T10:15:35.605Z,16.65
2022-12-05T10:18:24.033Z,17.06
2022-12-05T10:20:56.952Z,17.07
2022-12-05T10:23:56.184Z,16.40
2022-12-05T10:26:04.210Z,17.30
2022-12-05T10:28:42.684Z,17.97
2022-12-05T10:31:15.645Z,17.53
2022-12-05T10:33:48.963Z,16.55
2022-12-05T10:36:19.047Z,18.25
2022-12-05T10:38:50.142Z,17.23
2022-12-05T10:41:19.982Z,16.57
2022-12-05T10:43:49.849Z,16.43
2022-12-05T10:46:19.676Z,15.87
2022-12-05T10:48:49.454Z,16.93
2022-12-05T10:51:22.245Z,17.53
2022-12-05T10:53:54.350Z,17.20
2022-12-05T10:56:45.053Z,17.65
2022-12-05T10:59:18.336Z,16.50
2022-12-05T11:01:56.936Z,16.37
2022-12-05T11:04:35.581Z,16.77
2022-12-05T11:07:06.547Z,15.95
2022-12-05T11:09:39.996Z,15.73
2022-12-05T11:12:17.086Z,13.94
2022-12-05T11:15:09.116Z,15.50
2022-12-05T11:17:40.941Z,14.83
2022-12-05T11:20:25.058Z,13.00
2022-12-05T11:22:58.743Z,13.87
2022-12-05T11:25:33.953Z,14.33
2022-12-05T11:28:24.395Z,13.93
2022-12-05T11:31:06.103Z,12.73
2022-12-05T11:33:37.321Z,12.60
2022-12-05T11:36:17.079Z,13.67
2022-12-05T11:38:47.000Z,13.63
2022-12-05T11:41:43.489Z,13.80
2022-12-05T11:44:28.059Z,12.43
2022-12-05T11:47:15.374Z,12.00
2022-12-05T11:50:02.909Z,12.20
2022-12-05T11:52:41.395Z,11.77
2022-12-05T11:55:16.803Z,11.57
2022-12-05T11:58:04.394Z,11.93
2022-12-05T12:01:04.055Z,11.43
2022-12-05T12:03:51.844Z,11.73
2022-12-05T12:06:27.189Z,10.87
2022-12-05T12:09:06.012Z,11.17
2022-12-05T12:11:44.683Z,11.30
2022-12-05T12:14:17.173Z,11.20
2022-12-05T12:16:55.550Z,11.60
2022-12-05T12:19:42.667Z,11.20
2022-12-05T12:22:22.764Z,11.38
2022-12-05T12:24:58.515Z,11.67
2022-12-05T12:27:58.665Z,12.07
2022-12-05T12:30:35.497Z,11.20
2022-12-05T12:33:11.594Z,11.73
2022-12-05T12:35:50.328Z,11.13
2022-12-05T12:41:31.762Z,11.18
2022-12-05T12:44:34.578Z,10.63
2022-12-05T12:47:25.342Z,11.40
2022-12-05T12:50:13.085Z,11.25
2022-12-05T12:52:57.593Z,11.23
2022-12-05T12:55:38.859Z,10.87
2022-12-05T12:58:42.152Z,10.33
2022-12-05T13:01:31.160Z,10.20
2022-12-05T13:04:07.195Z,10.65
2022-12-05T13:09:30.383Z,11.70
2022-12-05T13:12:05.904Z,9.83
2022-12-05T13:14:38.028Z,10.83
2022-12-05T13:17:09.594Z,10.65
2022-12-05T13:19:45.391Z,10.20
2022-12-05T13:22:16.853Z,10.33
2022-12-05T13:24:47.030Z,10.43
2022-12-05T13:27:22.312Z,11.40
2022-12-05T13:30:08.071Z,10.17
2022-12-05T13:32:38.148Z,10.50
2022-12-05T13:35:37.238Z,11.03
2022-12-05T13:38:41.218Z,11.05
2022-12-05T13:41:28.483Z,11.27
2022-12-05T13:44:06.290Z,13.10
2022-12-05T13:46:33.559Z,12.90
2022-12-05T13:49:07.382Z,12.40
2022-12-05T13:51:41.014Z,15.00
2022-12-05T13:54:18.223Z,14.97
2022-12-05T13:56:58.422Z,14.43
2022-12-05T14:00:00.552Z,15.33
2022-12-05T14:02:48.620Z,14.90
2022-12-05T14:05:21.206Z,15.95
2022-12-05T14:07:59.784Z,15.23
2022-12-05T14:10:38.641Z,15.43
2022-12-05T14:13:20.449Z,15.53
2022-12-05T14:15:52.414Z,14.90
2022-12-05T14:18:27.840Z,16.10
2022-12-05T14:21:12.090Z,16.47
2022-12-05T14:24:03.435Z,16.82
2022-12-05T14:26:42.204Z,18.62
2022-12-05T14:29:46.633Z,18.83
2022-12-05T14:32:25.306Z,19.07
2022-12-05T14:35:15.888Z,19.53
2022-12-05T14:38:08.750Z,18.90
2022-12-05T14:40:44.449Z,18.70
2022-12-05T14:43:35.280Z,17.52
2022-12-05T14:46:09.325Z,16.53
2022-12-05T14:48:47.314Z,18.75
2022-12-05T14:51:32.496Z,17.80
2022-12-05T14:54:19.831Z,17.63
2022-12-05T14:56:55.224Z,16.93
2022-12-05T15:00:02.847Z,17.00
2022-12-05T15:02:36.181Z,16.80
2022-12-05T15:05:16.548Z,15.73
2022-12-05T15:07:48.499Z,16.47
2022-12-05T15:10:23.990Z,14.98
2022-12-05T15:12:59.183Z,15.97
2022-12-05T15:15:32.391Z,15.90
2022-12-05T15:18:27.708Z,14.60
2022-12-05T15:21:22.785Z,14.97
2022-12-05T15:24:01.332Z,15.93
2022-12-05T15:26:54.323Z,15.10
2022-12-05T15:29:27.901Z,16.03
2022-12-05T15:32:02.889Z,15.73
2022-12-05T15:34:44.649Z,15.40
2022-12-05T15:37:36.787Z,15.00
2022-12-05T15:40:14.661Z,14.43
2022-12-05T15:42:47.324Z,13.23
2022-12-05T15:45:21.822Z,13.18
2022-12-05T15:47:59.909Z,13.43
2022-12-05T15:50:41.006Z,13.10
2022-12-05T15:53:16.422Z,12.87
2022-12-05T15:55:54.889Z,12.53
2022-12-05T15:58:36.054Z,14.30
2022-12-05T16:01:14.406Z,15.27
2022-12-05T16:04:02.370Z,13.40
2022-12-05T16:06:41.094Z,12.57
2022-12-05T16:09:19.505Z,10.53
2022-12-05T16:12:03.931Z,12.03
2022-12-05T16:17:14.023Z,8.47
2022-12-05T16:19:44.189Z,7.57
2022-12-05T16:22:23.215Z,6.68
2022-12-05T16:24:59.271Z,5.63
2022-12-05T16:27:31.922Z,5.20
2022-12-05T16:30:16.678Z,5.07
2022-12-05T16:32:49.101Z,4.40
2022-12-05T16:35:33.726Z,4.35
2022-12-05T16:38:29.754Z,4.83
2022-12-05T16:41:09.050Z,4.67
2022-12-05T16:43:41.904Z,3.93
2022-12-05T16:46:17.463Z,4.10
2022-12-05T16:48:49.657Z,3.80
2022-12-05T16:51:22.327Z,4.97
2022-12-05T16:53:54.571Z,3.50
2022-12-05T16:56:32.566Z,3.65
2022-12-05T16:59:04.810Z,3.87
2022-12-05T17:01:39.174Z,3.60
2022-12-05T17:04:12.856Z,3.44
2022-12-05T17:06:42.643Z,3.53
2022-12-05T17:09:13.112Z,3.83
2022-12-05T17:11:45.201Z,3.53
2022-12-05T17:14:16.557Z,3.43
2022-12-05T17:16:46.961Z,3.93
2022-12-05T17:19:16.760Z,3.87
2022-12-05T17:21:46.697Z,4.03
2022-12-05T17:24:19.046Z,3.50
2022-12-05T17:26:49.160Z,3.90
2022-12-05T17:29:19.053Z,4.57
2022-12-05T17:31:49.351Z,4.20
2022-12-05T17:34:19.513Z,4.25
2022-12-05T17:36:49.458Z,4.57
2022-12-05T17:39:22.417Z,4.47
2022-12-05T17:41:50.645Z,4.60
2022-12-05T17:44:20.481Z,4.85
2022-12-05T17:46:50.344Z,4.37
2022-12-05T17:49:20.204Z,4.87
2022-12-05T17:54:23.006Z,5.65
2022-12-05T17:56:52.820Z,4.57
2022-12-05T17:59:24.221Z,5.30
2022-12-05T18:01:53.963Z,5.70
2022-12-05T18:04:23.816Z,5.80
2022-12-05T18:06:53.572Z,6.10
2022-12-05T18:09:23.971Z,5.95
2022-12-05T18:11:53.777Z,5.87
2022-12-05T18:14:26.439Z,5.30
2022-12-05T18:16:56.505Z,5.30
2022-12-05T18:19:26.695Z,6.35
2022-12-05T18:21:56.421Z,6.10
2022-12-05T18:24:26.179Z,6.63
2022-12-05T18:26:56.082Z,6.60
2022-12-05T18:29:25.927Z,5.93
2022-12-05T18:31:55.771Z,5.93
2022-12-05T18:34:25.428Z,5.97
2022-12-05T18:36:56.055Z,5.93
2022-12-05T18:39:25.983Z,6.50
2022-12-05T18:41:55.744Z,6.37
2022-12-05T18:44:25.851Z,6.55
2022-12-05T18:46:55.593Z,6.77
2022-12-05T18:49:25.873Z,6.03
2022-12-05T18:51:55.626Z,6.30
2022-12-05T18:54:25.350Z,6.30
2022-12-05T18:56:55.377Z,5.92
2022-12-05T18:59:25.759Z,6.83
2022-12-05T19:01:56.021Z,5.63
2022-12-05T19:04:25.444Z,7.10
2022-12-05T19:06:58.562Z,7.10
2022-12-05T19:09:30.964Z,7.73
2022-12-05T19:12:01.554Z,6.83
2022-12-05T19:14:33.019Z,6.60
2022-12-05T19:17:04.331Z,6.60
2022-12-05T19:19:34.392Z,6.22
2022-12-05T19:22:04.134Z,6.37
2022-12-05T19:24:33.859Z,6.50
2022-12-05T19:27:03.892Z,6.27
2022-12-05T19:29:33.642Z,6.87
2022-12-05T19:32:03.424Z,6.57
2022-12-05T19:34:34.569Z,7.65
2022-12-05T19:37:04.288Z,7.43
2022-12-05T19:39:34.422Z,7.03
2022-12-05T19:42:04.205Z,7.13
2022-12-05T19:44:33.972Z,7.10
2022-12-05T19:47:03.775Z,7.20
2022-12-05T19:49:33.567Z,6.70
2022-12-05T19:52:03.965Z,7.23
2022-12-05T19:54:33.721Z,7.17
2022-12-05T19:57:03.514Z,7.10
2022-12-05T19:59:33.326Z,6.73
2022-12-05T20:02:03.542Z,6.90
2022-12-05T20:04:33.112Z,6.60
2022-12-05T20:07:02.909Z,6.63
2022-12-05T20:09:34.305Z,6.83
2022-12-05T20:12:04.553Z,6.67
2022-12-05T20:14:34.732Z,7.00
2022-12-05T20:17:05.365Z,6.67
2022-12-05T20:19:35.073Z,8.13
2022-12-05T20:22:05.125Z,6.92
2022-12-05T20:24:35.158Z,7.35
2022-12-05T20:27:06.261Z,6.73
2022-12-05T20:29:38.509Z,6.77
2022-12-05T20:32:09.080Z,5.93
2022-12-05T20:34:39.115Z,6.72
2022-12-05T20:37:09.245Z,7.10
2022-12-05T20:39:39.284Z,6.92
2022-12-05T20:42:08.840Z,6.55
2022-12-05T20:44:38.940Z,6.95
2022-12-05T20:47:08.665Z,6.83
2022-12-05T20:49:38.721Z,6.33
2022-12-05T20:52:08.467Z,5.80
2022-12-05T20:54:38.199Z,6.67
2022-12-05T20:57:08.423Z,7.00
2022-12-05T20:59:38.483Z,7.28
2022-12-05T21:02:08.625Z,6.83
2022-12-05T21:04:40.199Z,7.07
2022-12-05T21:07:10.324Z,7.17
2022-12-05T21:09:40.398Z,6.97
2022-12-05T21:12:12.265Z,8.05
2022-12-05T21:14:42.009Z,8.20
2022-12-05T21:17:13.389Z,8.00
2022-12-05T21:19:45.061Z,7.28
2022-12-05T21:22:15.142Z,7.45
2022-12-05T21:24:45.168Z,7.60
2022-12-05T21:27:14.936Z,7.83
2022-12-05T21:29:44.473Z,7.40
2022-12-05T21:32:15.329Z,7.35
2022-12-05T21:34:45.444Z,7.78
2022-12-05T21:37:15.159Z,7.47
2022-12-05T21:39:44.919Z,8.10
2022-12-05T21:42:14.355Z,7.95
2022-12-05T21:44:44.175Z,7.80
2022-12-05T21:47:14.090Z,7.57
2022-12-05T21:49:43.812Z,8.20
2022-12-05T21:52:13.871Z,7.25
2022-12-05T21:54:43.599Z,8.13
2022-12-05T21:57:13.633Z,8.03
2022-12-05T21:59:43.356Z,7.77
2022-12-05T22:02:13.182Z,6.93
2022-12-05T22:04:42.985Z,7.53
2022-12-05T22:07:12.782Z,7.33
2022-12-05T22:09:42.892Z,6.78
2022-12-05T22:12:14.547Z,7.12
2022-12-05T22:14:44.267Z,6.97
2022-12-05T22:17:14.322Z,7.12
2022-12-05T22:19:44.137Z,6.80
2022-12-05T22:22:15.476Z,5.74
2022-12-05T22:24:45.232Z,6.13
2022-12-05T22:27:14.976Z,5.80
2022-12-05T22:29:47.393Z,5.57
2022-12-05T22:32:16.709Z,6.10
2022-12-05T22:34:46.443Z,5.37
2022-12-05T22:37:16.189Z,5.63
2022-12-05T22:39:46.210Z,5.22
2022-12-05T22:42:15.978Z,5.60
2022-12-05T22:44:46.033Z,5.80
2022-12-05T22:47:16.060Z,5.50
2022-12-05T22:49:46.089Z,4.90
2022-12-05T22:52:15.928Z,5.33
2022-12-05T22:54:46.011Z,5.85
2022-12-05T22:57:15.736Z,5.10
2022-12-05T22:59:45.748Z,5.20
2022-12-05T23:02:15.486Z,5.37
2022-12-05T23:04:46.174Z,5.33
2022-12-05T23:07:15.975Z,4.83
2022-12-05T23:09:46.004Z,4.67
2022-12-05T23:12:15.726Z,4.73
2022-12-05T23:14:45.746Z,4.37
2022-12-05T23:17:15.470Z,4.90
2022-12-05T23:19:45.486Z,4.37
2022-12-05T23:22:14.980Z,5.10
2022-12-05T23:24:45.066Z,4.97
2022-12-05T23:27:16.033Z,5.33
2022-12-05T23:29:46.875Z,4.42
2022-12-05T23:32:16.587Z,4.90
2022-12-05T23:34:46.677Z,4.60
2022-12-05T23:37:16.412Z,4.87
2022-12-05T23:39:46.438Z,5.22
2022-12-05T23:42:16.163Z,5.13
2022-12-05T23:44:46.200Z,4.60
2022-12-05T23:47:16.026Z,4.83
2022-12-05T23:49:46.085Z,4.70
2022-12-05T23:52:15.807Z,4.90
2022-12-05T23:54:45.522Z,4.87
2022-12-05T23:57:17.786Z,4.80
2022-12-05T23:59:47.283Z,4.60
